Time;durP1;ratioP1;P1;durP2;ratioP2;P2;SDS_P1;SDS_P2;PMS_P1;PMS_P2;Temp;Humidity;BMP_temperature;BMP_pressure;BME280_temperature;BME280_humidity;BME280_pressure;Samples;Min_cycle;Max_cycle;Signal;HPM_P1;HPM_P2
2020/12/01 00:01:27;;;;;;;7.57;4.00;;;;;;;5.39;50.55;100992.97;5044006;28;20503;-70
2020/12/01 00:03:54;;;;;;;7.93;3.90;;;;;;;5.39;50.57;100996.56;5042179;28;20408;-69
2020/12/01 00:06:23;;;;;;;7.20;3.80;;;;;;;5.41;50.86;100991.03;5041653;28;20049;-69
2020/12/01 00:08:50;;;;;;;6.97;3.85;;;;;;;5.40;50.95;100990.16;5047721;28;20037;-70
2020/12/01 00:11:18;;;;;;;6.13;3.72;;;;;;;5.41;50.65;100983.78;5043574;28;20045;-69
2020/12/01 00:13:46;;;;;;;6.88;3.95;;;;;;;5.42;50.87;100979.22;5050876;28;20061;-69
2020/12/01 00:16:14;;;;;;;6.07;3.78;;;;;;;5.43;50.78;100972.84;5039914;28;20052;-69
2020/12/01 00:19:07;;;;;;;6.78;3.78;;;;;;;5.40;51.68;100964.88;5041371;28;20435;-69
2020/12/01 00:21:35;;;;;;;8.07;3.88;;;;;;;5.41;50.91;100953.06;5041502;28;20041;-68
2020/12/01 00:24:02;;;;;;;6.60;3.72;;;;;;;5.42;50.70;100952.09;5036405;28;20041;-68
2020/12/01 00:26:29;;;;;;;7.93;4.38;;;;;;;5.42;50.79;100952.97;5054064;28;20099;-67
2020/12/01 00:28:57;;;;;;;6.60;3.72;;;;;;;5.42;51.01;100955.69;5049729;28;20044;-68
2020/12/01 00:31:24;;;;;;;7.53;3.83;;;;;;;5.43;50.93;100943.84;5048834;28;20580;-68
2020/12/01 00:33:51;;;;;;;7.50;4.32;;;;;;;5.44;50.81;100944.72;5056916;28;20095;-68
2020/12/01 00:36:18;;;;;;;6.80;3.95;;;;;;;5.44;50.83;100945.59;5044999;28;20045;-67
2020/12/01 00:38:46;;;;;;;6.53;3.83;;;;;;;5.46;51.11;100940.94;5041684;28;20033;-67
2020/12/01 00:41:14;;;;;;;7.82;4.55;;;;;;;5.47;50.78;100939.09;5048134;28;20430;-67
2020/12/01 00:43:41;;;;;;;6.85;4.10;;;;;;;5.47;50.81;100942.72;5050376;28;20056;-67
2020/12/01 00:46:09;;;;;;;6.78;3.80;;;;;;;5.49;51.31;100942.63;5021446;28;20041;-66
2020/12/01 00:48:36;;;;;;;6.38;3.88;;;;;;;5.49;51.08;100943.50;5039111;28;20195;-67
2020/12/01 00:51:04;;;;;;;7.38;3.95;;;;;;;5.51;50.60;100937.97;5061088;28;20128;-66
2020/12/01 00:53:31;;;;;;;7.50;4.00;;;;;;;5.51;50.89;100932.56;5037030;28;20120;-67
2020/12/01 00:56:00;;;;;;;6.47;3.70;;;;;;;5.52;50.96;100927.00;5034704;28;20384;-67
2020/12/01 00:58:28;;;;;;;7.45;4.03;;;;;;;5.53;50.75;100934.19;5051487;28;20128;-68
2020/12/01 01:01:09;;;;;;;6.60;3.97;;;;;;;5.52;50.96;100932.44;5049161;28;20381;-68
2020/12/01 01:03:36;;;;;;;6.57;4.00;;;;;;;5.53;50.78;100923.31;5058760;28;20080;-69
2020/12/01 01:06:03;;;;;;;7.75;4.20;;;;;;;5.55;50.91;100923.22;5042331;28;20053;-68
2020/12/01 01:08:31;;;;;;;5.78;3.53;;;;;;;5.56;50.90;100916.84;5056078;28;20045;-67
2020/12/01 01:10:58;;;;;;;6.40;3.92;;;;;;;5.56;50.88;100917.72;5042432;28;20033;-68
2020/12/01 01:13:26;;;;;;;6.85;4.03;;;;;;;5.59;50.93;100919.38;5051859;28;20055;-68
2020/12/01 01:15:53;;;;;;;7.07;3.58;;;;;;;5.58;50.92;100913.06;5042548;28;20119;-68
2020/12/01 01:18:20;;;;;;;6.57;3.70;;;;;;;5.59;50.86;100913.94;5042562;28;20500;-67
2020/12/01 01:20:48;;;;;;;8.98;4.25;;;;;;;5.60;50.90;100902.97;5040104;28;20042;-69
2020/12/01 01:23:15;;;;;;;6.63;3.72;;;;;;;5.60;51.14;100911.09;5042171;28;20044;-69
2020/12/01 01:25:42;;;;;;;7.45;4.15;;;;;;;5.61;51.04;100906.53;5043448;28;20353;-67
2020/12/01 01:28:10;;;;;;;6.45;4.00;;;;;;;5.63;51.25;100906.44;5046530;28;20041;-67
2020/12/01 01:30:40;;;;;;;6.95;3.58;;;;;;;5.63;50.98;100903.75;5038438;28;20080;-67
2020/12/01 01:33:09;;;;;;;6.55;3.72;;;;;;;5.64;51.10;100898.22;5041234;28;20443;-66
2020/12/01 01:35:37;;;;;;;6.85;3.92;;;;;;;5.64;50.92;100900.94;5058351;28;20116;-66
2020/12/01 01:38:06;;;;;;;7.15;3.85;;;;;;;5.66;51.06;100898.13;5045424;28;20061;-66
2020/12/01 01:40:36;;;;;;;7.38;4.47;;;;;;;5.68;51.19;100904.31;5054448;28;20047;-65
2020/12/01 01:43:04;;;;;;;8.18;4.63;;;;;;;5.68;50.88;100901.63;5049258;28;20045;-66
2020/12/01 01:45:38;;;;;;;6.72;4.13;;;;;;;5.69;51.47;100908.75;5044827;28;20061;-66
2020/12/01 01:48:15;;;;;;;7.75;4.15;;;;;;;5.69;51.48;100897.91;5043259;28;20079;-66
2020/12/01 01:50:49;;;;;;;7.82;4.35;;;;;;;5.68;51.18;100896.19;5050938;28;20104;-66
2020/12/01 01:53:17;;;;;;;7.68;4.47;;;;;;;5.66;51.00;100896.28;5041951;28;20041;-66
2020/12/01 01:55:45;;;;;;;8.90;5.38;;;;;;;5.66;50.89;100898.13;5041768;28;20065;-66
2020/12/01 01:58:15;;;;;;;9.15;5.40;;;;;;;5.66;50.84;100898.13;5035185;28;20053;-66
2020/12/01 02:00:56;;;;;;;9.07;5.50;;;;;;;5.66;51.20;100892.69;5014762;28;20103;-66
2020/12/01 02:03:32;;;;;;;8.43;5.03;;;;;;;5.63;51.18;100898.31;5043969;28;20041;-66
2020/12/01 02:06:00;;;;;;;8.43;4.88;;;;;;;5.59;50.65;100884.09;5040040;28;20047;-66
2020/12/01 02:08:28;;;;;;;8.93;5.03;;;;;;;5.58;50.59;100882.34;5042969;28;20046;-66
2020/12/01 02:10:57;;;;;;;8.52;4.70;;;;;;;5.58;50.57;100888.66;5047582;28;20073;-66
2020/12/01 02:13:37;;;;;;;9.85;5.03;;;;;;;5.59;51.44;100873.22;5047159;28;20045;-66
2020/12/01 02:16:06;;;;;;;10.32;5.45;;;;;;;5.54;50.48;100867.22;5054837;28;20479;-66
2020/12/01 02:18:38;;;;;;;9.80;5.30;;;;;;;5.54;50.77;100869.94;5039530;28;20053;-66
2020/12/01 02:21:26;;;;;;;7.78;4.93;;;;;;;5.51;51.41;100871.00;5037686;28;20029;-66
2020/12/01 02:23:56;;;;;;;9.80;5.40;;;;;;;5.50;50.76;100868.41;5044397;28;20048;-67
2020/12/01 02:26:25;;;;;;;8.90;5.00;;;;;;;5.49;50.72;100862.09;5039831;28;20492;-67
2020/12/01 02:28:53;;;;;;;9.73;5.63;;;;;;;5.47;50.60;100865.84;5038816;28;20061;-67
2020/12/01 02:31:21;;;;;;;7.93;4.57;;;;;;;5.45;50.61;100860.50;5042664;28;20056;-66
2020/12/01 02:33:48;;;;;;;8.93;4.90;;;;;;;5.44;50.55;100852.47;5046986;28;20048;-66
2020/12/01 02:36:15;;;;;;;8.82;4.60;;;;;;;5.43;50.69;100862.44;5039597;28;20046;-67
2020/12/01 02:38:43;;;;;;;8.57;5.05;;;;;;;5.42;50.83;100860.72;5037674;28;20045;-66
2020/12/01 02:41:10;;;;;;;8.50;5.15;;;;;;;5.41;50.79;100861.69;5042974;28;20506;-67
2020/12/01 02:43:38;;;;;;;9.20;5.55;;;;;;;5.41;50.72;100864.41;5044443;28;20052;-67
2020/12/01 02:46:06;;;;;;;7.50;4.70;;;;;;;5.40;50.83;100853.66;5041703;28;20041;-67
2020/12/01 02:48:33;;;;;;;8.93;5.25;;;;;;;5.39;50.86;100852.78;5041302;28;20049;-67
2020/12/01 02:51:00;;;;;;;8.77;5.20;;;;;;;5.39;51.04;100847.34;5039544;28;20041;-67
2020/12/01 02:53:28;;;;;;;8.23;5.03;;;;;;;5.40;50.90;100845.50;5044332;28;20472;-66
2020/12/01 02:55:55;;;;;;;8.30;4.80;;;;;;;5.39;51.00;100841.06;5054129;28;20033;-66
2020/12/01 02:58:22;;;;;;;10.43;5.60;;;;;;;5.40;50.94;100840.09;5054015;28;20045;-67
2020/12/01 03:02:12;;;;;;;8.15;5.30;;;;;;;5.40;51.00;100834.66;5169654;27;20361;-67
2020/12/01 03:04:39;;;;;;;8.82;5.55;;;;;;;5.41;50.83;100839.13;5155867;27;20039;-67
2020/12/01 03:07:07;;;;;;;8.07;4.72;;;;;;;5.41;50.95;100840.00;5148437;27;20584;-67
2020/12/01 03:09:34;;;;;;;8.85;5.25;;;;;;;5.40;50.99;100842.81;5149047;27;20050;-67
2020/12/01 03:12:01;;;;;;;8.55;5.47;;;;;;;5.39;51.02;100843.78;5149102;27;20119;-68
2020/12/01 03:14:28;;;;;;;7.80;4.65;;;;;;;5.39;50.92;100851.91;5149079;27;20035;-68
2020/12/01 03:16:55;;;;;;;8.32;4.70;;;;;;;5.37;50.94;100849.28;5113510;27;20046;-68
2020/12/01 03:19:23;;;;;;;8.05;5.00;;;;;;;5.37;51.01;100845.69;5154257;22;20031;-67
2020/12/01 03:21:50;;;;;;;8.95;5.40;;;;;;;5.35;51.10;100844.91;5101297;28;20114;-68
2020/12/01 03:24:17;;;;;;;8.85;5.40;;;;;;;5.33;51.06;100831.47;5083364;28;20048;-67
2020/12/01 03:26:44;;;;;;;9.10;4.68;;;;;;;5.32;51.19;100837.88;5079642;28;20409;-68
2020/12/01 03:29:11;;;;;;;8.25;4.95;;;;;;;5.31;50.91;100836.13;5066697;28;20412;-68
2020/12/01 03:31:39;;;;;;;9.13;4.97;;;;;;;5.31;50.94;100837.97;5068812;28;20090;-67
2020/12/01 03:34:06;;;;;;;11.90;5.38;;;;;;;5.30;51.03;100841.66;5087085;28;20048;-67
2020/12/01 03:36:34;;;;;;;8.70;4.72;;;;;;;5.30;50.77;100842.53;5044005;28;20102;-67
2020/12/01 03:39:01;;;;;;;9.13;4.75;;;;;;;5.29;51.03;100838.06;5087159;28;20052;-67
2020/12/01 03:41:28;;;;;;;7.30;4.13;;;;;;;5.28;50.96;100835.44;5086821;28;20036;-67
2020/12/01 03:43:55;;;;;;;8.27;4.35;;;;;;;5.27;51.23;100842.72;5095982;28;20044;-67
2020/12/01 03:46:22;;;;;;;9.80;5.13;;;;;;;5.27;51.05;100837.28;5078312;28;20051;-68
2020/12/01 03:48:49;;;;;;;8.63;4.70;;;;;;;5.27;51.11;100837.28;5101481;28;20508;-68
2020/12/01 03:51:16;;;;;;;9.07;5.15;;;;;;;5.27;51.04;100837.28;5105985;28;20063;-68
2020/12/01 03:53:44;;;;;;;7.93;4.63;;;;;;;5.27;51.07;100836.41;5087197;28;20045;-68
2020/12/01 03:56:11;;;;;;;9.35;5.07;;;;;;;5.27;51.00;100839.13;5087072;28;20059;-69
2020/12/01 03:58:38;;;;;;;8.50;4.60;;;;;;;5.26;51.14;100831.97;5086951;28;20086;-69
2020/12/01 04:01:05;;;;;;;7.07;3.95;;;;;;;5.25;51.35;100833.81;5068639;28;20032;-69
2020/12/01 04:03:32;;;;;;;8.43;4.65;;;;;;;5.26;51.17;100830.16;5068752;28;20044;-69
2020/12/01 04:06:00;;;;;;;8.25;4.90;;;;;;;5.25;51.13;100825.69;5086739;28;20128;-69
2020/12/01 04:08:27;;;;;;;7.47;4.60;;;;;;;5.26;51.10;100830.16;5086797;28;20105;-69
2020/12/01 04:10:55;;;;;;;8.55;4.80;;;;;;;5.28;51.50;100827.31;5068529;28;20501;-69
2020/12/01 04:13:42;;;;;;;10.93;5.55;;;;;;;5.26;51.27;100830.16;5072540;28;20075;-68
2020/12/01 04:16:29;;;;;;;8.68;4.40;;;;;;;5.26;51.24;100832.84;5073188;28;20523;-68
2020/12/01 04:19:16;;;;;;;8.48;4.70;;;;;;;5.27;51.10;100837.28;5057567;28;20078;-68
2020/12/01 04:22:03;;;;;;;9.13;5.00;;;;;;;5.28;50.99;100830.03;5057996;28;20131;-69
2020/12/01 04:24:50;;;;;;;7.03;4.28;;;;;;;5.27;51.23;100834.56;5072533;28;20060;-69
2020/12/01 04:27:30;;;;;;;8.23;4.70;;;;;;;5.29;51.30;100835.34;5040204;28;20044;-69
2020/12/01 04:30:17;;;;;;;8.98;5.00;;;;;;;5.29;51.24;100839.91;5057887;28;20079;-67
2020/12/01 04:32:52;;;;;;;9.13;4.70;;;;;;;5.30;51.22;100842.53;5039179;28;20048;-68
2020/12/01 04:35:21;;;;;;;8.15;4.35;;;;;;;5.31;51.16;100838.84;5072837;28;20409;-68
2020/12/01 04:38:02;;;;;;;7.55;4.40;;;;;;;5.31;51.08;100837.97;5072907;28;20090;-68
2020/12/01 04:40:32;;;;;;;7.13;4.05;;;;;;;5.32;51.43;100837.88;5072676;28;20152;-69
2020/12/01 04:43:06;;;;;;;9.45;5.13;;;;;;;5.33;51.55;100842.34;5038145;28;20048;-68
2020/12/01 04:45:34;;;;;;;9.40;5.45;;;;;;;5.31;51.33;100848.81;5072559;28;20529;-68
2020/12/01 04:48:06;;;;;;;9.82;5.50;;;;;;;5.33;51.31;100841.47;5072748;28;20559;-67
2020/12/01 04:50:36;;;;;;;8.77;5.03;;;;;;;5.31;51.40;100843.41;5072517;28;20056;-67
2020/12/01 04:53:39;;;;;;;8.68;5.32;;;;;;;5.26;51.75;100843.72;5072208;28;20066;-68
2020/12/01 04:56:49;;;;;;;7.72;4.35;;;;;;;5.22;51.97;100848.44;5072418;28;20371;-68
2020/12/01 04:59:57;;;;;;;8.23;4.32;;;;;;;5.25;51.77;100844.66;5072261;28;20474;-68
2020/12/01 05:02:39;;;;;;;7.50;4.35;;;;;;;5.26;51.93;100848.25;5037495;28;20497;-67
2020/12/01 05:05:50;;;;;;;7.25;4.32;;;;;;;5.23;52.11;100852.91;5054315;28;20417;-68
2020/12/01 05:08:34;;;;;;;7.82;4.90;;;;;;;5.25;51.84;100857.34;5050574;28;20408;-69
2020/12/01 05:11:08;;;;;;;9.13;4.47;;;;;;;5.25;51.32;100857.34;5070930;28;20456;-69
2020/12/01 05:13:35;;;;;;;8.05;4.30;;;;;;;5.23;51.33;100855.63;5072183;28;20044;-67
2020/12/01 05:16:16;;;;;;;7.15;4.32;;;;;;;5.28;52.07;100854.44;5072100;28;20044;-68
2020/12/01 05:18:43;;;;;;;7.53;4.25;;;;;;;5.25;51.28;100862.78;5054309;28;20048;-68
2020/12/01 05:21:11;;;;;;;8.55;4.43;;;;;;;5.25;51.32;100863.66;5086731;28;20264;-68
2020/12/01 05:23:42;;;;;;;8.85;4.50;;;;;;;5.28;51.66;100868.00;5068797;28;20370;-67
2020/12/01 05:26:14;;;;;;;9.95;5.55;;;;;;;5.28;51.70;100873.41;5037451;28;20052;-67
2020/12/01 05:28:47;;;;;;;8.97;4.27;;;;;;;5.26;51.93;100864.53;5054671;28;20059;-67
2020/12/01 05:31:16;;;;;;;9.40;4.73;;;;;;;5.25;51.69;100863.66;5070683;28;20056;-67
2020/12/01 05:33:43;;;;;;;8.73;4.90;;;;;;;5.27;51.25;100875.25;5055453;28;20114;-67
2020/12/01 05:36:20;;;;;;;9.88;5.60;;;;;;;5.30;52.09;100875.06;5046917;28;20053;-67
2020/12/01 05:38:58;;;;;;;8.90;5.20;;;;;;;5.30;51.98;100874.19;5064277;28;20054;-67
2020/12/01 05:41:27;;;;;;;7.60;4.60;;;;;;;5.28;51.64;100876.13;5053947;28;20055;-67
2020/12/01 05:43:57;;;;;;;7.82;4.40;;;;;;;5.28;51.55;100873.41;5053072;28;20042;-67
2020/12/01 05:46:33;;;;;;;8.15;4.60;;;;;;;5.29;51.96;100878.75;5073274;28;20040;-67
2020/12/01 05:49:04;;;;;;;6.57;4.13;;;;;;;5.29;51.60;100886.00;5052889;28;20048;-66
2020/12/01 05:51:42;;;;;;;8.63;4.75;;;;;;;5.30;52.07;100879.63;5053805;28;20113;-67
2020/12/01 05:54:15;;;;;;;7.10;4.13;;;;;;;5.29;51.94;100881.47;5051162;28;20514;-67
2020/12/01 05:56:51;;;;;;;8.50;4.72;;;;;;;5.31;52.09;100875.94;5063460;28;20082;-67
2020/12/01 05:59:20;;;;;;;7.93;4.80;;;;;;;5.28;51.53;100878.84;5070474;28;20049;-67
2020/12/01 06:01:58;;;;;;;9.65;5.10;;;;;;;5.31;51.87;100875.94;5061961;28;20032;-66
2020/12/01 06:04:26;;;;;;;9.18;4.97;;;;;;;5.27;51.40;100874.38;5070633;28;20045;-67
2020/12/01 06:07:12;;;;;;;8.38;5.15;;;;;;;5.30;52.13;100875.06;5052765;28;20097;-67
2020/12/01 06:10:04;;;;;;;9.10;5.40;;;;;;;5.27;52.34;100875.25;5054455;28;20064;-66
2020/12/01 06:12:53;;;;;;;9.40;4.85;;;;;;;5.29;52.01;100880.59;5070464;28;20150;-67
2020/12/01 06:15:21;;;;;;;10.23;4.85;;;;;;;5.27;51.32;100875.25;5050847;28;20650;-65
2020/12/01 06:17:56;;;;;;;8.63;5.07;;;;;;;5.30;52.03;100882.34;5072888;28;20536;-67
2020/12/01 06:20:34;;;;;;;9.38;5.40;;;;;;;5.31;52.21;100887.66;5074646;28;20513;-67
2020/12/01 06:23:49;;;;;;;7.22;4.32;;;;;;;5.28;52.35;100881.56;5076474;28;20121;-66
2020/12/01 06:26:57;;;;;;;7.55;4.75;;;;;;;5.29;52.32;100883.28;5071581;28;20048;-67
2020/12/01 06:29:55;;;;;;;8.13;4.63;;;;;;;5.31;52.44;100886.78;5067289;28;20055;-67
2020/12/01 06:32:59;;;;;;;6.60;4.20;;;;;;;5.31;52.41;100889.50;5078417;28;20454;-67
2020/12/01 06:35:49;;;;;;;8.65;4.25;;;;;;;5.32;52.19;100888.53;5071486;28;20056;-67
2020/12/01 06:38:52;;;;;;;7.95;4.60;;;;;;;5.30;52.37;100895.91;5058990;28;20041;-67
2020/12/01 06:41:22;;;;;;;8.67;4.70;;;;;;;5.32;51.90;100902.97;5064201;28;20071;-67
2020/12/01 06:43:52;;;;;;;8.32;4.63;;;;;;;5.35;51.72;100902.75;5064795;28;20048;-67
2020/12/01 06:46:39;;;;;;;9.75;5.18;;;;;;;5.38;52.32;100899.88;5052354;28;20486;-67
2020/12/01 06:49:10;;;;;;;8.25;4.63;;;;;;;5.38;52.03;100902.56;5069059;28;20040;-66
2020/12/01 06:51:39;;;;;;;8.57;4.78;;;;;;;5.40;51.99;100902.47;5046000;28;20060;-67
2020/12/01 06:54:13;;;;;;;10.18;5.55;;;;;;;5.42;52.12;100904.13;5088754;28;20048;-66
2020/12/01 06:56:41;;;;;;;8.93;5.03;;;;;;;5.41;51.76;100896.09;5090467;28;20147;-66
2020/12/01 06:59:11;;;;;;;7.38;4.38;;;;;;;5.44;51.95;100906.72;5072363;28;20044;-67
2020/12/01 07:01:40;;;;;;;8.32;4.93;;;;;;;5.44;51.86;100910.31;5086888;28;20090;-67
2020/12/01 07:04:22;;;;;;;9.40;5.35;;;;;;;5.47;52.45;100915.59;5070434;28;20040;-67
2020/12/01 07:06:52;;;;;;;7.35;4.43;;;;;;;5.47;52.04;100914.69;5075234;28;20051;-67
2020/12/01 07:09:24;;;;;;;9.32;4.72;;;;;;;5.49;51.92;100919.09;5070094;28;20773;-67
2020/12/01 07:11:58;;;;;;;7.47;4.82;;;;;;;5.52;52.51;100910.72;5066549;28;20047;-66
2020/12/01 07:14:37;;;;;;;7.28;4.38;;;;;;;5.54;52.04;100921.47;5087799;28;20463;-66
2020/12/01 07:17:29;;;;;;;8.40;5.20;;;;;;;5.54;52.50;100921.47;5061518;28;20059;-67
2020/12/01 07:19:58;;;;;;;9.23;4.93;;;;;;;5.56;52.13;100924.97;5055302;28;20050;-66
2020/12/01 07:22:41;;;;;;;9.52;5.47;;;;;;;5.59;52.46;100927.50;5071337;28;20040;-66
2020/12/01 07:25:13;;;;;;;8.50;5.40;;;;;;;5.57;52.25;100921.28;5080773;28;20040;-66
2020/12/01 07:27:48;;;;;;;8.20;4.90;;;;;;;5.60;52.37;100932.81;5053675;28;20090;-66
2020/12/01 07:30:18;;;;;;;9.73;5.63;;;;;;;5.62;51.79;100932.72;5090226;28;20571;-66
2020/12/01 07:32:50;;;;;;;10.50;5.80;;;;;;;5.62;52.24;100935.44;5071409;28;20072;-67
2020/12/01 07:35:33;;;;;;;9.88;5.47;;;;;;;5.64;52.71;100941.63;5088071;28;20048;-67
2020/12/01 07:38:27;;;;;;;11.40;6.22;;;;;;;5.64;52.54;100943.47;5082939;28;20059;-67
2020/12/01 07:41:23;;;;;;;7.65;4.78;;;;;;;5.62;52.62;100938.13;5051977;28;20059;-67
2020/12/01 07:43:58;;;;;;;8.00;5.18;;;;;;;5.64;52.36;100941.63;5071161;28;20113;-67
2020/12/01 07:46:26;;;;;;;8.63;4.88;;;;;;;5.64;51.99;100938.91;5069953;28;20111;-67
2020/12/01 07:49:00;;;;;;;9.27;5.20;;;;;;;5.67;52.47;100944.16;5073405;28;20044;-67
2020/12/01 07:51:30;;;;;;;9.82;5.65;;;;;;;5.65;51.87;100948.81;5090674;28;20032;-67
2020/12/01 07:53:59;;;;;;;9.52;5.63;;;;;;;5.66;52.19;100950.56;5055396;28;20052;-66
2020/12/01 07:56:29;;;;;;;12.48;6.00;;;;;;;5.66;52.01;100953.28;5055646;28;20052;-66
2020/12/01 07:59:06;;;;;;;10.88;6.25;;;;;;;5.69;52.55;100960.31;5073164;28;20049;-66
2020/12/01 08:01:34;;;;;;;11.65;6.57;;;;;;;5.66;52.00;100965.97;5073079;28;20040;-67
2020/12/01 08:04:06;;;;;;;12.23;7.00;;;;;;;5.67;52.22;100968.59;5068236;28;20072;-66
2020/12/01 08:06:34;;;;;;;10.50;6.45;;;;;;;5.64;52.10;100960.63;5073447;28;20044;-67
2020/12/01 08:09:11;;;;;;;10.77;6.10;;;;;;;5.70;52.65;100975.63;5076047;28;20048;-67
2020/12/01 08:11:42;;;;;;;9.32;5.68;;;;;;;5.68;52.49;100974.91;5071186;28;20044;-66
2020/12/01 08:14:11;;;;;;;9.90;5.70;;;;;;;5.68;52.53;100983.03;5053433;28;20087;-67
2020/12/01 08:16:39;;;;;;;10.57;6.88;;;;;;;5.67;52.18;100987.59;5031428;28;20059;-67
2020/12/01 08:19:06;;;;;;;11.13;6.22;;;;;;;5.69;52.20;100990.19;5044904;28;20053;-70
2020/12/01 08:21:38;;;;;;;12.07;6.55;;;;;;;5.71;52.19;100990.97;5073093;28;20532;-70
2020/12/01 08:24:09;;;;;;;11.98;6.20;;;;;;;5.71;52.50;100985.53;5074464;28;20037;-67
2020/12/01 08:26:37;;;;;;;8.10;5.25;;;;;;;5.72;52.33;100990.00;5072919;28;20139;-70
2020/12/01 08:29:11;;;;;;;9.50;5.88;;;;;;;5.72;52.23;100988.16;5069517;28;20044;-69
2020/12/01 08:31:48;;;;;;;8.93;5.65;;;;;;;5.73;52.65;100991.75;5054729;28;20067;-69
2020/12/01 08:34:33;;;;;;;8.77;4.72;;;;;;;5.75;52.93;100995.25;5087010;28;20071;-69
2020/12/01 08:37:11;;;;;;;8.55;5.03;;;;;;;5.76;52.93;100991.56;5075355;28;20413;-70
2020/12/01 08:39:50;;;;;;;9.02;5.10;;;;;;;5.78;53.06;100993.19;5071560;28;20418;-69
2020/12/01 08:42:25;;;;;;;8.95;5.15;;;;;;;5.78;52.83;100993.19;5073056;28;20041;-69
2020/12/01 08:45:21;;;;;;;8.70;5.13;;;;;;;5.80;53.12;100990.38;5072721;28;20044;-69
2020/12/01 08:47:55;;;;;;;8.77;5.10;;;;;;;5.80;52.62;100985.81;5072013;28;20114;-70
2020/12/01 08:50:26;;;;;;;9.80;5.38;;;;;;;5.83;52.49;100995.63;5052586;28;20057;-68
2020/12/01 08:53:08;;;;;;;8.48;5.10;;;;;;;5.86;53.20;100993.56;5052527;28;20448;-69
2020/12/01 08:55:38;;;;;;;10.20;6.00;;;;;;;5.87;52.60;100998.03;5052524;28;20049;-69
2020/12/01 08:58:14;;;;;;;9.90;5.75;;;;;;;5.91;53.17;101005.00;5052178;28;20044;-70
2020/12/01 09:00:58;;;;;;;8.43;5.28;;;;;;;5.92;53.25;101009.44;5092612;28;20036;-69
2020/12/01 09:03:29;;;;;;;10.80;5.57;;;;;;;5.94;52.82;101007.50;5088194;28;20097;-69
2020/12/01 09:05:59;;;;;;;9.90;5.55;;;;;;;5.97;52.64;101011.88;5072360;28;20049;-70
2020/12/01 09:14:14;;;;;;;9.15;5.72;;;;;;;6.03;52.78;101019.63;5078811;28;20040;-69
2020/12/01 09:16:58;;;;;;;10.15;5.63;;;;;;;6.07;52.78;101017.59;5092457;28;20044;-70
2020/12/01 09:22:28;;;;;;;9.43;5.53;;;;;;;6.13;53.44;101015.34;4994903;28;20493;-69
2020/12/01 09:25:22;;;;;;;11.32;5.97;;;;;;;6.16;53.38;101022.44;5073493;28;20044;-67
2020/12/01 09:27:51;;;;;;;10.93;6.10;;;;;;;6.17;52.91;101014.16;5073812;28;20531;-67
2020/12/01 09:30:30;;;;;;;11.13;5.32;;;;;;;6.24;53.57;101020.94;5073090;28;20044;-67
2020/12/01 09:32:58;;;;;;;8.93;5.10;;;;;;;6.24;53.03;101020.94;5073809;28;20118;-68
2020/12/01 09:35:26;;;;;;;10.05;4.93;;;;;;;6.28;52.99;101011.59;5073705;28;20051;-67
2020/12/01 09:37:54;;;;;;;11.48;5.15;;;;;;;6.31;53.11;101021.41;5073699;28;20041;-68
2020/12/01 09:40:24;;;;;;;9.00;4.82;;;;;;;6.34;53.29;101024.78;5065769;28;20056;-68
2020/12/01 09:42:55;;;;;;;8.43;5.05;;;;;;;6.39;53.24;101021.78;5073243;28;20045;-68
2020/12/01 09:45:25;;;;;;;9.20;5.18;;;;;;;6.43;53.44;101027.84;5073558;28;20055;-68
2020/12/01 09:47:58;;;;;;;9.82;5.45;;;;;;;6.48;53.33;101028.44;5079991;28;20483;-68
2020/12/01 09:50:29;;;;;;;8.45;4.93;;;;;;;6.49;53.76;101024.75;5061940;28;20537;-68
2020/12/01 09:53:14;;;;;;;9.30;4.47;;;;;;;6.53;53.46;101026.28;5057677;28;20094;-68
2020/12/01 09:55:57;;;;;;;9.98;4.68;;;;;;;6.58;53.40;101024.16;5030012;28;20385;-68
2020/12/01 10:09:52;;;;;;;9.85;4.07;;;;;;;6.75;53.49;101022.00;5044060;28;20106;-67
2020/12/01 10:12:34;;;;;;;8.40;4.65;;;;;;;6.79;53.51;101028.13;5031739;28;20048;-67
2020/12/01 10:18:21;;;;;;;7.85;4.30;;;;;;;6.87;53.61;101019.44;5024981;28;20691;-69
2020/12/01 10:33:57;;;;;;;6.57;3.50;;;;;;;7.06;53.57;101017.25;5044394;28;20049;-68
2020/12/01 10:35:50;;;;;;;6.68;3.38;;;;;;;7.06;53.98;101014.53;5033801;28;20396;-68
2020/12/01 10:38:17;;;;;;;6.90;3.45;;;;;;;7.13;53.76;101021.28;5033096;28;20412;-68
2020/12/01 10:40:46;;;;;;;6.25;3.60;;;;;;;7.15;54.03;101016.59;5047768;28;20065;-68
2020/12/01 10:43:13;;;;;;;5.78;3.08;;;;;;;7.19;53.89;101023.56;5049959;28;20124;-68
2020/12/01 10:45:43;;;;;;;7.68;3.97;;;;;;;7.21;54.02;101023.47;5048150;28;20555;-68
2020/12/01 10:48:19;;;;;;;6.85;3.05;;;;;;;7.24;54.08;101024.09;5054857;28;20037;-69
2020/12/01 10:50:47;;;;;;;6.32;3.33;;;;;;;7.27;53.97;101018.47;5051171;28;20476;-69
2020/12/01 10:53:14;;;;;;;5.55;3.08;;;;;;;7.30;53.95;101020.09;5051269;28;20087;-69
2020/12/01 10:55:42;;;;;;;4.80;2.75;;;;;;;7.33;53.94;101022.59;5050719;28;20392;-69
2020/12/01 10:58:10;;;;;;;5.80;3.00;;;;;;;7.36;53.97;101023.25;5051301;28;20128;-69
2020/12/01 11:00:37;;;;;;;5.93;2.80;;;;;;;7.36;54.00;101025.97;5042751;28;20040;-68
2020/12/01 11:03:04;;;;;;;6.55;3.20;;;;;;;7.38;53.83;101024.03;5050013;28;20035;-68
2020/12/01 11:05:32;;;;;;;6.30;3.00;;;;;;;7.41;53.74;101031.97;5047140;28;20041;-68
2020/12/01 11:08:01;;;;;;;5.82;3.20;;;;;;;7.43;53.93;101023.69;5037591;28;20037;-69
2020/12/01 11:10:28;;;;;;;6.40;3.42;;;;;;;7.43;53.67;101027.28;5058400;28;20131;-71
2020/12/01 11:12:56;;;;;;;6.10;3.38;;;;;;;7.43;53.85;101024.56;5049231;28;20073;-69
2020/12/01 11:15:24;;;;;;;7.55;3.63;;;;;;;7.46;53.84;101031.66;5033458;28;20041;-69
2020/12/01 11:17:51;;;;;;;6.18;2.83;;;;;;;7.46;53.74;101029.81;5025129;28;20045;-69
2020/12/01 11:20:19;;;;;;;4.75;3.20;;;;;;;7.48;53.82;101035.16;5049746;28;20059;-69
2020/12/01 11:22:48;;;;;;;6.65;3.38;;;;;;;7.48;53.83;101030.56;5053667;28;20037;-69
2020/12/01 11:25:15;;;;;;;5.22;3.03;;;;;;;7.49;53.80;101034.13;5036246;28;20073;-69
2020/12/01 11:27:43;;;;;;;6.10;3.20;;;;;;;7.50;53.93;101033.16;5052909;28;20064;-69
2020/12/01 11:30:11;;;;;;;3.65;2.30;;;;;;;7.52;53.67;101038.50;5054848;28;20053;-69
2020/12/01 11:32:39;;;;;;;4.68;2.60;;;;;;;7.54;54.03;101042.00;5053497;28;20256;-69
2020/12/01 11:35:10;;;;;;;4.07;2.50;;;;;;;7.54;53.95;101036.53;5053837;28;20118;-69
2020/12/01 11:37:39;;;;;;;3.80;2.40;;;;;;;7.56;53.87;101034.59;5043202;28;20099;-69
2020/12/01 11:40:07;;;;;;;4.22;2.60;;;;;;;7.58;54.01;101044.38;5054888;28;20045;-69
2020/12/01 11:42:35;;;;;;;4.00;2.60;;;;;;;7.59;54.16;101039.81;5039488;28;20061;-69
2020/12/01 11:45:03;;;;;;;4.50;2.55;;;;;;;7.60;54.02;101031.53;5052202;28;20043;-69
2020/12/01 11:47:30;;;;;;;3.97;2.13;;;;;;;7.61;54.33;101036.00;5056479;28;20040;-69
2020/12/01 11:49:59;;;;;;;4.82;2.63;;;;;;;7.64;54.23;101035.78;5050668;28;20131;-68
2020/12/01 11:52:26;;;;;;;4.80;2.60;;;;;;;7.66;54.42;101043.81;5047387;28;20083;-70
2020/12/01 11:54:53;;;;;;;5.05;3.10;;;;;;;7.68;54.42;101042.75;5052536;28;20045;-69
2020/12/01 11:57:20;;;;;;;5.13;3.05;;;;;;;7.72;54.52;101037.97;5031141;28;20529;-69
2020/12/01 11:59:48;;;;;;;5.22;3.08;;;;;;;7.74;54.50;101031.41;5050418;28;20405;-69
2020/12/01 12:02:15;;;;;;;5.22;3.25;;;;;;;7.77;54.61;101033.91;5049283;28;20490;-69
2020/12/01 12:04:53;;;;;;;5.60;3.40;;;;;;;7.81;54.45;101035.47;5043475;28;20436;-69
2020/12/01 12:07:22;;;;;;;6.30;3.67;;;;;;;7.85;54.33;101030.66;5047968;28;20052;-70
2020/12/01 12:09:49;;;;;;;6.75;4.10;;;;;;;7.87;54.52;101040.47;5050952;28;20116;-69
2020/12/01 12:12:17;;;;;;;7.60;4.22;;;;;;;7.90;54.01;101035.78;5052763;28;20036;-70
2020/12/01 12:14:44;;;;;;;6.72;3.78;;;;;;;7.92;54.39;101033.78;5020115;28;20124;-70
2020/12/01 12:17:11;;;;;;;7.10;4.10;;;;;;;7.94;54.37;101029.97;5052179;28;20052;-70
2020/12/01 12:19:39;;;;;;;7.57;4.43;;;;;;;7.98;54.34;101036.97;5050618;28;20426;-70
2020/12/01 12:22:06;;;;;;;7.32;4.40;;;;;;;7.99;54.35;101035.09;5053420;28;20116;-70
2020/12/01 12:24:34;;;;;;;6.78;4.13;;;;;;;8.03;54.25;101031.16;5053411;28;20037;-69
2020/12/01 12:27:02;;;;;;;6.78;4.22;;;;;;;8.03;54.11;101028.44;5045152;28;20573;-69
2020/12/01 12:29:30;;;;;;;7.85;4.43;;;;;;;8.06;54.46;101031.81;5050885;28;20033;-70
2020/12/01 12:31:57;;;;;;;7.05;4.25;;;;;;;8.07;54.08;101021.78;5042711;28;20033;-69
2020/12/01 12:34:25;;;;;;;6.88;4.45;;;;;;;8.08;54.18;101021.66;5047820;28;20145;-71